Costa Fascinosa — ICPO — position and weather

sailwx.info

Track history (hours):
 
Tides and Currents Weather Stations Pressure Air Temp Water Temp Dewpoint Dewpoint Depression Visibility Wind Speed Wind Dir Waves Ship Positions

Costa Fascinosa

Last reported at 2019-Sep-17 08:30 UTC. Time now 2019-Sep-17 08:40 UTC.
Position N 38°08' E 013°22'.

Length 291 m; draft 8.3 m.

Type: Passenger vessel. MMSI: 247313500.

Date/timePositionNaut miles runAvg speedWind from/ knotsBaromVisibWave heightAir tempDewpointWater temp
2019-Sep-17 08:30N 38°08' E 013°22'0 0.0
2019-Sep-17 08:00N 38°08' E 013°22'0 0.0
2019-Sep-17 07:30N 38°08' E 013°22'0 0.0
2019-Sep-17 06:57N 38°08' E 013°22'0 0.6
2019-Sep-17 06:30N 38°08' E 013°22'3 5.7
2019-Sep-17 06:01N 38°10' E 013°25'816.3
2019-Sep-17 05:31N 38°18' E 013°27'917.7
2019-Sep-17 05:01N 38°26' E 013°28'917.6
2019-Sep-17 04:31N 38°35' E 013°31'917.6
2019-Sep-17 04:00N 38°43' E 013°35'917.7
2019-Sep-17 03:29N 38°52' E 013°38'1318.1
2019-Sep-17 02:45N 39°05' E 013°42'2615.5
2019-Sep-17 01:03N 39°31' E 013°49'3111.6
2019-Sep-16 22:21N 40°01' E 013°59'612.2
2019-Sep-16 21:52N 40°07' E 014°00'512.2
2019-Sep-16 21:30N 40°11' E 014°02'612.3
2019-Sep-16 21:00N 40°17' E 014°04'912.4
2019-Sep-16 20:16N 40°26' E 014°07'612.2
2019-Sep-16 19:45N 40°32' E 014°09'312.0
2019-Sep-16 19:30N 40°35' E 014°09'612.3
2019-Sep-16 19:00N 40°41' E 014°12'611.8
2019-Sep-16 18:30N 40°46' E 014°15'4 7.8
2019-Sep-16 18:00N 40°50' E 014°16'0 0.0
2019-Sep-16 17:30N 40°50' E 014°16'0 0.0
2019-Sep-16 17:00N 40°50' E 014°16'0 0.0
2019-Sep-16 16:30N 40°50' E 014°16'0 0.0
2019-Sep-16 16:00N 40°50' E 014°16'0 0.0
2019-Sep-16 15:30N 40°50' E 014°16'0 0.0
2019-Sep-16 15:00N 40°50' E 014°16'0 0.0
2019-Sep-16 14:30N 40°50' E 014°16'0 0.0
2019-Sep-16 13:48N 40°50' E 014°16'0 0.0
2019-Sep-16 13:21N 40°50' E 014°16'0 0.0
2019-Sep-16 12:51N 40°50' E 014°16'0 0.0
2019-Sep-16 12:30N 40°50' E 014°16'0 0.0
2019-Sep-16 11:59N 40°50' E 014°16'0 0.0
2019-Sep-16 11:27N 40°50' E 014°16'0 0.0
2019-Sep-16 10:57N 40°50' E 014°16'0 0.1
2019-Sep-16 10:30N 40°50' E 014°16'2 3.5
2019-Sep-16 10:00N 40°49' E 014°17'715.1
2019-Sep-16 09:30N 40°42' E 014°15'917.6
2019-Sep-16 09:00N 40°38' E 014°05'918.0
2019-Sep-16 08:30N 40°38' E 013°53'816.9
2019-Sep-16 08:00N 40°43' E 013°44'918.0
2019-Sep-16 07:30N 40°49' E 013°35'1017.8
2019-Sep-16 06:56N 40°55' E 013°24'818.0
2019-Sep-16 06:30N 40°58' E 013°15'919.0
2019-Sep-16 06:00N 41°03' E 013°04'1020.2
2019-Sep-16 05:30N 41°08' E 012°53'1320.5
2019-Sep-16 04:52N 41°15' E 012°38'720.5
2019-Sep-16 04:30N 41°19' E 012°29'1020.4
2019-Sep-16 04:00N 41°25' E 012°18'1020.5
2019-Sep-16 03:30N 41°31' E 012°07'1020.6
2019-Sep-16 03:00N 41°37' E 011°56'1020.6
2019-Sep-16 02:30N 41°43' E 011°45'1020.3
2019-Sep-16 02:00N 41°49' E 011°34'1020.2
2019-Sep-16 01:30N 41°55' E 011°23'1020.0
2019-Sep-16 01:00N 42°00' E 011°12'1119.9
2019-Sep-16 00:26N 42°07' E 010°59'819.8
2019-Sep-16 00:00N 42°12' E 010°50'1019.9
2019-Sep-15 23:30N 42°19' E 010°40'1120.0
2019-Sep-15 22:57N 42°26' E 010°29'1020.1
2019-Sep-15 22:28N 42°32' E 010°19'1020.3
2019-Sep-15 21:59N 42°39' E 010°08'920.0
2019-Sep-15 21:30N 42°44' E 009°57'1020.1
2019-Sep-15 21:00N 42°48' E 009°45'1019.1
2019-Sep-15 20:29N 42°56' E 009°38'1019.9
2019-Sep-15 20:00N 43°05' E 009°33'1020.4
2019-Sep-15 19:30N 43°14' E 009°26'1020.5
2019-Sep-15 19:00N 43°23' E 009°18'1020.2
2019-Sep-15 18:30N 43°31' E 009°11'1020.1
2019-Sep-15 18:00N 43°40' E 009°04'1020.1
2019-Sep-15 17:31N 43°49' E 008°57'1020.1
2019-Sep-15 17:01N 43°57' E 008°50'1020.4
2019-Sep-15 16:31N 44°06' E 008°42'1020.0
2019-Sep-15 16:00N 44°15' E 008°35'611.3
2019-Sep-15 15:30N 44°19' E 008°30'1 1.4
2019-Sep-15 15:00N 44°19' E 008°30'0 0.0
2019-Sep-15 14:29N 44°19' E 008°30'0 0.0
2019-Sep-15 13:59N 44°19' E 008°30'0 0.0
2019-Sep-15 13:28N 44°19' E 008°30'0 0.0
2019-Sep-15 12:58N 44°19' E 008°30'0 0.0
2019-Sep-15 12:28N 44°19' E 008°30'0 0.0
2019-Sep-15 11:58N 44°19' E 008°30'0 0.0
2019-Sep-15 11:30N 44°19' E 008°30'0 0.0
2019-Sep-15 10:59N 44°19' E 008°30'0 0.0
2019-Sep-15 10:29N 44°19' E 008°30'0 0.0
2019-Sep-15 09:59N 44°19' E 008°30'0 0.0
2019-Sep-15 09:29N 44°19' E 008°30'0 0.0
2019-Sep-15 08:59N 44°19' E 008°30'0 0.0
2019-Sep-15 08:29N 44°19' E 008°30'0 0.0
2019-Sep-15 07:59N 44°19' E 008°30'0 0.0
2019-Sep-15 07:29N 44°19' E 008°30'0 0.0
2019-Sep-15 06:59N 44°19' E 008°30'0 0.0
2019-Sep-15 06:29N 44°19' E 008°30'0 0.0
2019-Sep-15 06:00N 44°19' E 008°30'2 4.0
2019-Sep-15 05:30N 44°18' E 008°32'714.2
2019-Sep-15 05:00N 44°11' E 008°29'917.4
2019-Sep-15 04:30N 44°04' E 008°23'1019.2
2019-Sep-15 04:00N 43°55' E 008°17'1020.6
2019-Sep-15 03:30N 43°48' E 008°07'1020.5
2019-Sep-15 03:00N 43°41' E 007°57'1020.5
2019-Sep-15 02:30N 43°34' E 007°45'1020.8
2019-Sep-15 02:00N 43°28' E 007°34'1020.8
2019-Sep-15 01:30N 43°22' E 007°22'1020.7
2019-Sep-15 01:00N 43°16' E 007°11'1020.7
2019-Sep-15 00:30N 43°10' E 006°59'1020.5
2019-Sep-15 00:00N 43°04' E 006°48'1120.4
2019-Sep-14 23:29N 42°58' E 006°36'7421.2
2019-Sep-14 20:00N 42°23' E 005°08'2121.5
2019-Sep-14 19:00N 42°13' E 004°42'1121.5
2019-Sep-14 18:30N 42°08' E 004°30'1321.4
2019-Sep-14 17:55N 42°02' E 004°15'921.3
2019-Sep-14 17:31N 41°58' E 004°04'1821.1
2019-Sep-14 16:38N 41°49' E 003°42'321.0
2019-Sep-14 16:30N 41°48' E 003°39'1921.3
2019-Sep-14 15:37N 41°39' E 003°17'221.6
2019-Sep-14 15:30N 41°38' E 003°14'1121.4
2019-Sep-14 15:00N 41°33' E 003°01'1020.2
2019-Sep-14 14:30N 41°28' E 002°50'1020.4
2019-Sep-14 14:00N 41°22' E 002°38'1020.4
2019-Sep-14 13:30N 41°18' E 002°25'1019.6
2019-Sep-14 13:00N 41°14' E 002°14'611.3
2019-Sep-14 12:30N 41°19' E 002°10'2 3.5
2019-Sep-14 11:59N 41°21' E 002°10'0 0.0
2019-Sep-14 11:29N 41°21' E 002°10'0 0.0
2019-Sep-14 11:00N 41°21' E 002°10'0 0.0
2019-Sep-14 10:28N 41°21' E 002°10'0 0.0
2019-Sep-14 09:58N 41°21' E 002°10'0 0.0
2019-Sep-14 09:28N 41°21' E 002°10'0 0.0
2019-Sep-14 08:58N 41°21' E 002°10'0 0.0
2019-Sep-14 08:30N 41°21' E 002°10'0 0.0
2019-Sep-14 07:59N 41°21' E 002°10'0 0.0
2019-Sep-14 07:28N 41°21' E 002°10'0 0.0
2019-Sep-14 06:58N 41°21' E 002°10'0 0.0
2019-Sep-14 06:30N 41°21' E 002°10'0 0.0
2019-Sep-14 06:00N 41°21' E 002°10'0 0.0
2019-Sep-14 05:28N 41°21' E 002°10'0 0.0
2019-Sep-14 04:58N 41°21' E 002°10'0 0.0
2019-Sep-14 04:28N 41°21' E 002°10'0 0.0
2019-Sep-14 03:57N 41°21' E 002°10'0 0.0
2019-Sep-14 03:29N 41°21' E 002°10'0 0.0
2019-Sep-14 02:58N 41°21' E 002°10'0 0.0
2019-Sep-14 02:30N 41°21' E 002°10'0 0.0
2019-Sep-14 01:59N 41°21' E 002°10'0 0.0
2019-Sep-14 01:27N 41°21' E 002°10'0 0.0
2019-Sep-14 00:59N 41°21' E 002°10'0 0.0
2019-Sep-14 00:30N 41°21' E 002°10'0 0.0
2019-Sep-13 23:58N 41°21' E 002°10'0 0.0
2019-Sep-13 23:28N 41°21' E 002°10'0 0.0
2019-Sep-13 22:58N 41°21' E 002°10'0 0.0
2019-Sep-13 22:28N 41°21' E 002°10'0 0.0
2019-Sep-13 21:58N 41°21' E 002°10'0 0.0
2019-Sep-13 21:29N 41°21' E 002°10'0 0.0
2019-Sep-13 20:58N 41°21' E 002°10'0 0.0
2019-Sep-13 20:30N 41°21' E 002°10'0 0.0
2019-Sep-13 19:59N 41°21' E 002°10'0 0.0
2019-Sep-13 19:28N 41°21' E 002°10'0 0.0
2019-Sep-13 19:00N 41°21' E 002°10'0 0.0
2019-Sep-13 18:27N 41°21' E 002°10'0 0.0
2019-Sep-13 17:59N 41°21' E 002°10'0 0.0
2019-Sep-13 17:29N 41°21' E 002°10'0 0.0
2019-Sep-13 16:58N 41°21' E 002°10'0 0.0
2019-Sep-13 16:28N 41°21' E 002°10'0 0.0
2019-Sep-13 15:57N 41°21' E 002°10'0 0.0
2019-Sep-13 15:30N 41°21' E 002°10'0 0.0
2019-Sep-13 15:00N 41°21' E 002°10'0 0.0
2019-Sep-13 14:26N 41°21' E 002°10'0 0.0
2019-Sep-13 14:00N 41°21' E 002°10'0 0.0
2019-Sep-13 13:29N 41°21' E 002°10'0 0.0
2019-Sep-13 12:58N 41°21' E 002°10'0 0.0
2019-Sep-13 12:30N 41°21' E 002°10'0 0.0
2019-Sep-13 11:59N 41°21' E 002°10'0 0.0
2019-Sep-13 11:29N 41°21' E 002°10'0 0.0
2019-Sep-13 10:58N 41°21' E 002°10'0 0.0
2019-Sep-13 10:28N 41°21' E 002°10'0 0.0
2019-Sep-13 09:58N 41°21' E 002°10'0 0.0
2019-Sep-13 09:28N 41°21' E 002°10'0 0.0
2019-Sep-13 08:58N 41°21' E 002°10'0 0.0
2019-Sep-13 08:28N 41°21' E 002°10'0 0.0
2019-Sep-13 07:58N 41°21' E 002°10'0 0.0
2019-Sep-13 07:28N 41°21' E 002°10'0 0.0
2019-Sep-13 07:00N 41°21' E 002°10'1 1.1
2019-Sep-13 06:30N 41°21' E 002°10'2 4.1
2019-Sep-13 06:00N 41°19' E 002°10'611.6
2019-Sep-13 05:31N 41°13' E 002°11'917.7
2019-Sep-13 05:01N 41°04' E 002°11'917.6
2019-Sep-13 04:30N 40°55' E 002°12'1417.8
2019-Sep-13 03:44N 40°41' E 002°13'1018.4
2019-Sep-13 03:12N 40°32' E 002°13'3420.4
2019-Sep-13 01:30N 39°57' E 002°15'3019.4
2019-Sep-12 23:59N 39°28' E 002°21'1020.2
2019-Sep-12 23:30N 39°25' E 002°33'916.7
2019-Sep-12 23:00N 39°33' E 002°39'1 1.5
2019-Sep-12 22:30N 39°33' E 002°38'0 0.0
2019-Sep-12 21:59N 39°33' E 002°38'0 0.0
2019-Sep-12 21:25N 39°33' E 002°38'0 0.0
2019-Sep-12 20:52N 39°33' E 002°38'0 0.0
2019-Sep-12 20:28N 39°33' E 002°38'0 0.0
2019-Sep-12 19:58N 39°33' E 002°38'0 0.0
2019-Sep-12 19:28N 39°33' E 002°38'0 0.0
2019-Sep-12 19:00N 39°33' E 002°38'0 0.0
2019-Sep-12 18:30N 39°33' E 002°38'0 0.0
2019-Sep-12 18:00N 39°33' E 002°38'0 0.0
2019-Sep-12 17:29N 39°33' E 002°38'0 0.0
2019-Sep-12 16:58N 39°33' E 002°38'0 0.0
2019-Sep-12 16:28N 39°33' E 002°38'0 0.0
2019-Sep-12 15:55N 39°33' E 002°38'0 0.0
2019-Sep-12 15:28N 39°33' E 002°38'0 0.0
2019-Sep-12 15:00N 39°33' E 002°38'0 0.0
2019-Sep-12 14:28N 39°33' E 002°38'0 0.0
2019-Sep-12 14:00N 39°33' E 002°38'0 0.0
2019-Sep-12 13:30N 39°33' E 002°38'0 0.0
2019-Sep-12 13:00N 39°33' E 002°38'0 0.0
2019-Sep-12 12:29N 39°33' E 002°38'0 0.0
2019-Sep-12 12:00N 39°33' E 002°38'0 0.2
2019-Sep-12 11:40N 39°33' E 002°38'0 0.3
2019-Sep-12 11:30N 39°33' E 002°38'0 0.0
2019-Sep-12 11:00N 39°33' E 002°38'0 0.0
2019-Sep-12 10:30N 39°33' E 002°38'0 0.0
2019-Sep-12 10:00N 39°33' E 002°38'0 0.0
2019-Sep-12 09:30N 39°33' E 002°38'0 0.0
2019-Sep-12 09:00N 39°33' E 002°38'0 0.0
2019-Sep-12 08:30N 39°33' E 002°38'0 0.0
2019-Sep-12 08:00N 39°33' E 002°38'0 0.0
2019-Sep-12 07:30N 39°33' E 002°38'0 0.0
2019-Sep-12 06:57N 39°33' E 002°38'0 0.0
2019-Sep-12 06:30N 39°33' E 002°38'0 0.0
2019-Sep-12 06:00N 39°33' E 002°38'1 1.7
2019-Sep-12 05:30N 39°33' E 002°39'4 7.6
2019-Sep-12 05:00N 39°29' E 002°37'713.8
2019-Sep-12 04:30N 39°23' E 002°33'611.1
2019-Sep-12 04:00N 39°18' E 002°30'610.9
2019-Sep-12 03:30N 39°13' E 002°29'611.7
2019-Sep-12 03:00N 39°07' E 002°30'812.2
2019-Sep-12 02:18N 38°60' E 002°36'411.7
2019-Sep-12 02:00N 38°57' E 002°39'46315.3
2019-Sep-10 19:48N 38°19' E 012°30'518.4
2019-Sep-10 19:30N 38°19' E 012°37'918.5
2019-Sep-10 19:00N 38°19' E 012°49'918.3
2019-Sep-10 18:30N 38°18' E 013°00'918.6
2019-Sep-10 18:01N 38°18' E 013°12'918.3
2019-Sep-10 17:30N 38°16' E 013°23'815.4
2019-Sep-10 17:00N 38°08' E 013°25'2 4.3
2019-Sep-10 16:30N 38°08' E 013°22'0 0.0
2019-Sep-10 15:59N 38°08' E 013°22'0 0.0
2019-Sep-10 15:29N 38°08' E 013°22'0 0.0
2019-Sep-10 14:58N 38°08' E 013°22'0 0.0
2019-Sep-10 14:30N 38°08' E 013°22'0 0.0
2019-Sep-10 14:00N 38°08' E 013°22'0 0.0
2019-Sep-10 13:30N 38°08' E 013°22'0 0.0
2019-Sep-10 13:00N 38°08' E 013°22'0 0.0
2019-Sep-10 12:30N 38°08' E 013°22'0 0.0
2019-Sep-10 11:59N 38°08' E 013°22'0 0.0
2019-Sep-10 11:29N 38°08' E 013°22'0 0.0
2019-Sep-10 10:59N 38°08' E 013°22'0 0.0
2019-Sep-10 10:29N 38°08' E 013°22'0 0.0
2019-Sep-10 09:59N 38°08' E 013°22'0 0.0
2019-Sep-10 09:29N 38°08' E 013°22'0 0.0
2019-Sep-10 08:59N 38°08' E 013°22'0 0.0
2019-Sep-10 08:29N 38°08' E 013°22'0 0.0
2019-Sep-10 07:59N 38°08' E 013°22'0 0.0
2019-Sep-10 07:29N 38°08' E 013°22'0 0.0
2019-Sep-10 07:01N 38°08' E 013°22'0 0.2
2019-Sep-10 06:31N 38°08' E 013°22'1 2.2
2019-Sep-10 06:01N 38°08' E 013°24'713.3
2019-Sep-10 05:31N 38°14' E 013°27'917.4
2019-Sep-10 05:01N 38°22' E 013°29'917.5
2019-Sep-10 04:31N 38°31' E 013°32'917.6
2019-Sep-10 04:00N 38°40' E 013°34'917.7
2019-Sep-10 03:30N 38°48' E 013°37'7514.5
2019-Sep-09 22:20N 40°01' E 013°59'512.5
2019-Sep-09 21:59N 40°06' E 014°00'612.4
2019-Sep-09 21:30N 40°11' E 014°02'612.4
2019-Sep-09 21:00N 40°17' E 014°04'612.2
2019-Sep-09 20:30N 40°23' E 014°05'812.1
2019-Sep-09 19:51N 40°31' E 014°08'412.2
2019-Sep-09 19:30N 40°35' E 014°09'612.2
2019-Sep-09 19:00N 40°41' E 014°13'612.2
2019-Sep-09 18:30N 40°46' E 014°15'4 7.8
2019-Sep-09 18:00N 40°50' E 014°16'0 0.1
2019-Sep-09 17:28N 40°50' E 014°16'0 0.0
2019-Sep-09 16:58N 40°50' E 014°16'0 0.0
2019-Sep-09 16:28N 40°50' E 014°16'0 0.0
2019-Sep-09 15:58N 40°50' E 014°16'0 0.0
2019-Sep-09 15:27N 40°50' E 014°16'0 0.0
2019-Sep-09 14:57N 40°50' E 014°16'0 0.0
2019-Sep-09 14:30N 40°50' E 014°16'0 0.0
2019-Sep-09 14:00N 40°50' E 014°16'0 0.0
2019-Sep-09 13:30N 40°50' E 014°16'0 0.0
2019-Sep-09 13:00N 40°50' E 014°16'0 0.0
2019-Sep-09 12:27N 40°50' E 014°16'0 0.0
2019-Sep-09 12:00N 40°50' E 014°16'0 0.0
2019-Sep-09 11:30N 40°50' E 014°16'0 0.0
2019-Sep-09 10:58N 40°50' E 014°16'0 0.4
2019-Sep-09 10:31N 40°50' E 014°16'4 8.0
2019-Sep-09 10:00N 40°46' E 014°17'917.8
2019-Sep-09 09:30N 40°39' E 014°10'918.1
2019-Sep-09 09:00N 40°38' E 013°58'1019.1
2019-Sep-09 08:30N 40°41' E 013°46'1019.6
2019-Sep-09 08:00N 40°47' E 013°36'16619.9
2019-Sep-08 23:40N 42°23' E 010°34'1120.4
2019-Sep-08 23:09N 42°29' E 010°23'820.4
2019-Sep-08 22:45N 42°35' E 010°15'620.5
2019-Sep-08 22:28N 42°38' E 010°09'1520.4
2019-Sep-08 21:43N 42°46' E 009°51'1320.1
2019-Sep-08 21:03N 42°56' E 009°38'120.5
2019-Sep-08 21:00N 42°57' E 009°37'1120.1
2019-Sep-08 20:28N 43°06' E 009°32'919.5
2019-Sep-08 20:01N 43°14' E 009°25'1019.8
2019-Sep-08 19:31N 43°23' E 009°18'1020.3
2019-Sep-08 19:01N 43°31' E 009°11'1020.1
2019-Sep-08 18:30N 43°40' E 009°04'1019.9
2019-Sep-08 18:00N 43°48' E 008°57'1019.7
2019-Sep-08 17:30N 43°57' E 008°50'1019.7
2019-Sep-08 17:01N 44°05' E 008°43'1020.0
2019-Sep-08 16:31N 44°14' E 008°36'612.7
2019-Sep-08 16:00N 44°19' E 008°31'1 1.8
2019-Sep-08 15:28N 44°19' E 008°29'0 0.0
2019-Sep-08 14:58N 44°19' E 008°29'0 0.0
2019-Sep-08 14:28N 44°19' E 008°29'0 0.0
2019-Sep-08 13:58N 44°19' E 008°29'0 0.0
2019-Sep-08 13:28N 44°19' E 008°29'0 0.0
2019-Sep-08 12:58N 44°19' E 008°29'0 0.0
2019-Sep-08 12:28N 44°19' E 008°29'0 0.0
2019-Sep-08 11:58N 44°19' E 008°29'0 0.0
2019-Sep-08 11:28N 44°19' E 008°29'0 0.0
2019-Sep-08 10:58N 44°19' E 008°29'0 0.0
2019-Sep-08 10:28N 44°19' E 008°29'0 0.0
2019-Sep-08 10:00N 44°19' E 008°29'0 0.0
2019-Sep-08 09:30N 44°19' E 008°29'0 0.0
2019-Sep-08 09:00N 44°19' E 008°29'0 0.0
2019-Sep-08 08:30N 44°19' E 008°29'0 0.0
2019-Sep-08 07:59N 44°19' E 008°29'0 0.0
2019-Sep-08 07:30N 44°19' E 008°29'0 0.0
2019-Sep-08 06:58N 44°19' E 008°29'0 0.0
2019-Sep-08 06:30N 44°19' E 008°29'0 0.4
2019-Sep-08 06:01N 44°19' E 008°29'2 4.3
2019-Sep-08 05:31N 44°17' E 008°32'612.1
2019-Sep-08 05:00N 44°11' E 008°29'918.7
2019-Sep-08 04:30N 44°04' E 008°22'1020.2
2019-Sep-08 04:01N 43°55' E 008°14'1121.0
2019-Sep-08 03:31N 43°48' E 008°05'1121.1
2019-Sep-08 03:00N 43°40' E 007°54'1121.3
2019-Sep-08 02:31N 43°33' E 007°43'1121.4
2019-Sep-08 02:01N 43°27' E 007°31'1121.4
2019-Sep-08 01:31N 43°21' E 007°19'1121.4
2019-Sep-08 01:01N 43°14' E 007°08'1121.1
2019-Sep-08 00:30N 43°08' E 006°56'1121.1
2019-Sep-07 23:59N 43°01' E 006°44'1020.9
2019-Sep-07 23:30N 42°55' E 006°33'19120.4
2019-Sep-07 14:10N 41°26' E 002°45'422.5
2019-Sep-07 14:01N 41°25' E 002°41'1122.2
2019-Sep-07 13:30N 41°19' E 002°28'1121.1
2019-Sep-07 13:00N 41°13' E 002°16'815.6
2019-Sep-07 12:30N 41°20' E 002°10'1 2.9
2019-Sep-07 11:59N 41°21' E 002°10'0 0.0
2019-Sep-07 11:29N 41°21' E 002°10'0 0.0
2019-Sep-07 10:59N 41°21' E 002°10'0 0.0
2019-Sep-07 10:30N 41°21' E 002°10'0 0.0
2019-Sep-07 09:58N 41°21' E 002°10'0 0.0
2019-Sep-07 09:29N 41°21' E 002°10'0 0.0
2019-Sep-07 09:00N 41°21' E 002°10'  
Track history (hours):
 
Tides and Currents Weather Stations Pressure Air Temp Water Temp Dewpoint Dewpoint Depression Visibility Wind Speed Wind Dir Waves Ship Positions

Costa Fascinosa

Last reported at 2019-Sep-17 08:30 UTC. Time now 2019-Sep-17 08:40 UTC.
Position N 38°08' E 013°22'.

Length 291 m; draft 8.3 m.

Type: Passenger vessel. MMSI: 247313500.

Date/timePositionNaut miles runAvg speedWind from/ knotsBaromVisibWave heightAir tempDewpointWater temp
2019-Sep-17 08:30N 38°08' E 013°22'0 0.0
2019-Sep-17 08:00N 38°08' E 013°22'0 0.0
2019-Sep-17 07:30N 38°08' E 013°22'0 0.0
2019-Sep-17 06:57N 38°08' E 013°22'0 0.6
2019-Sep-17 06:30N 38°08' E 013°22'3 5.7
2019-Sep-17 06:01N 38°10' E 013°25'816.3
2019-Sep-17 05:31N 38°18' E 013°27'917.7
2019-Sep-17 05:01N 38°26' E 013°28'917.6
2019-Sep-17 04:31N 38°35' E 013°31'917.6
2019-Sep-17 04:00N 38°43' E 013°35'917.7
2019-Sep-17 03:29N 38°52' E 013°38'1318.1
2019-Sep-17 02:45N 39°05' E 013°42'2615.5
2019-Sep-17 01:03N 39°31' E 013°49'3111.6
2019-Sep-16 22:21N 40°01' E 013°59'612.2
2019-Sep-16 21:52N 40°07' E 014°00'512.2
2019-Sep-16 21:30N 40°11' E 014°02'612.3
2019-Sep-16 21:00N 40°17' E 014°04'912.4
2019-Sep-16 20:16N 40°26' E 014°07'612.2
2019-Sep-16 19:45N 40°32' E 014°09'312.0
2019-Sep-16 19:30N 40°35' E 014°09'612.3
2019-Sep-16 19:00N 40°41' E 014°12'611.8
2019-Sep-16 18:30N 40°46' E 014°15'4 7.8
2019-Sep-16 18:00N 40°50' E 014°16'0 0.0
2019-Sep-16 17:30N 40°50' E 014°16'0 0.0
2019-Sep-16 17:00N 40°50' E 014°16'0 0.0
2019-Sep-16 16:30N 40°50' E 014°16'0 0.0
2019-Sep-16 16:00N 40°50' E 014°16'0 0.0
2019-Sep-16 15:30N 40°50' E 014°16'0 0.0
2019-Sep-16 15:00N 40°50' E 014°16'0 0.0
2019-Sep-16 14:30N 40°50' E 014°16'0 0.0
2019-Sep-16 13:48N 40°50' E 014°16'0 0.0
2019-Sep-16 13:21N 40°50' E 014°16'0 0.0
2019-Sep-16 12:51N 40°50' E 014°16'0 0.0
2019-Sep-16 12:30N 40°50' E 014°16'0 0.0
2019-Sep-16 11:59N 40°50' E 014°16'0 0.0
2019-Sep-16 11:27N 40°50' E 014°16'0 0.0
2019-Sep-16 10:57N 40°50' E 014°16'0 0.1
2019-Sep-16 10:30N 40°50' E 014°16'2 3.5
2019-Sep-16 10:00N 40°49' E 014°17'715.1
2019-Sep-16 09:30N 40°42' E 014°15'917.6
2019-Sep-16 09:00N 40°38' E 014°05'918.0
2019-Sep-16 08:30N 40°38' E 013°53'816.9
2019-Sep-16 08:00N 40°43' E 013°44'918.0
2019-Sep-16 07:30N 40°49' E 013°35'1017.8
2019-Sep-16 06:56N 40°55' E 013°24'818.0
2019-Sep-16 06:30N 40°58' E 013°15'919.0
2019-Sep-16 06:00N 41°03' E 013°04'1020.2
2019-Sep-16 05:30N 41°08' E 012°53'1320.5
2019-Sep-16 04:52N 41°15' E 012°38'720.5
2019-Sep-16 04:30N 41°19' E 012°29'1020.4
2019-Sep-16 04:00N 41°25' E 012°18'1020.5
2019-Sep-16 03:30N 41°31' E 012°07'1020.6
2019-Sep-16 03:00N 41°37' E 011°56'1020.6
2019-Sep-16 02:30N 41°43' E 011°45'1020.3
2019-Sep-16 02:00N 41°49' E 011°34'1020.2
2019-Sep-16 01:30N 41°55' E 011°23'1020.0
2019-Sep-16 01:00N 42°00' E 011°12'1119.9
2019-Sep-16 00:26N 42°07' E 010°59'819.8
2019-Sep-16 00:00N 42°12' E 010°50'1019.9
2019-Sep-15 23:30N 42°19' E 010°40'1120.0
2019-Sep-15 22:57N 42°26' E 010°29'1020.1
2019-Sep-15 22:28N 42°32' E 010°19'1020.3
2019-Sep-15 21:59N 42°39' E 010°08'920.0
2019-Sep-15 21:30N 42°44' E 009°57'1020.1
2019-Sep-15 21:00N 42°48' E 009°45'1019.1
2019-Sep-15 20:29N 42°56' E 009°38'1019.9
2019-Sep-15 20:00N 43°05' E 009°33'1020.4
2019-Sep-15 19:30N 43°14' E 009°26'1020.5
2019-Sep-15 19:00N 43°23' E 009°18'1020.2
2019-Sep-15 18:30N 43°31' E 009°11'1020.1
2019-Sep-15 18:00N 43°40' E 009°04'1020.1
2019-Sep-15 17:31N 43°49' E 008°57'1020.1
2019-Sep-15 17:01N 43°57' E 008°50'1020.4
2019-Sep-15 16:31N 44°06' E 008°42'1020.0
2019-Sep-15 16:00N 44°15' E 008°35'611.3
2019-Sep-15 15:30N 44°19' E 008°30'1 1.4
2019-Sep-15 15:00N 44°19' E 008°30'0 0.0
2019-Sep-15 14:29N 44°19' E 008°30'0 0.0
2019-Sep-15 13:59N 44°19' E 008°30'0 0.0
2019-Sep-15 13:28N 44°19' E 008°30'0 0.0
2019-Sep-15 12:58N 44°19' E 008°30'0 0.0
2019-Sep-15 12:28N 44°19' E 008°30'0 0.0
2019-Sep-15 11:58N 44°19' E 008°30'0 0.0
2019-Sep-15 11:30N 44°19' E 008°30'0 0.0
2019-Sep-15 10:59N 44°19' E 008°30'0 0.0
2019-Sep-15 10:29N 44°19' E 008°30'0 0.0
2019-Sep-15 09:59N 44°19' E 008°30'0 0.0
2019-Sep-15 09:29N 44°19' E 008°30'0 0.0
2019-Sep-15 08:59N 44°19' E 008°30'0 0.0
2019-Sep-15 08:29N 44°19' E 008°30'0 0.0
2019-Sep-15 07:59N 44°19' E 008°30'0 0.0
2019-Sep-15 07:29N 44°19' E 008°30'0 0.0
2019-Sep-15 06:59N 44°19' E 008°30'0 0.0
2019-Sep-15 06:29N 44°19' E 008°30'0 0.0
2019-Sep-15 06:00N 44°19' E 008°30'2 4.0
2019-Sep-15 05:30N 44°18' E 008°32'714.2
2019-Sep-15 05:00N 44°11' E 008°29'917.4
2019-Sep-15 04:30N 44°04' E 008°23'1019.2
2019-Sep-15 04:00N 43°55' E 008°17'1020.6
2019-Sep-15 03:30N 43°48' E 008°07'1020.5
2019-Sep-15 03:00N 43°41' E 007°57'1020.5
2019-Sep-15 02:30N 43°34' E 007°45'1020.8
2019-Sep-15 02:00N 43°28' E 007°34'1020.8
2019-Sep-15 01:30N 43°22' E 007°22'1020.7
2019-Sep-15 01:00N 43°16' E 007°11'1020.7
2019-Sep-15 00:30N 43°10' E 006°59'1020.5
2019-Sep-15 00:00N 43°04' E 006°48'1120.4
2019-Sep-14 23:29N 42°58' E 006°36'7421.2
2019-Sep-14 20:00N 42°23' E 005°08'2121.5
2019-Sep-14 19:00N 42°13' E 004°42'1121.5
2019-Sep-14 18:30N 42°08' E 004°30'1321.4
2019-Sep-14 17:55N 42°02' E 004°15'921.3
2019-Sep-14 17:31N 41°58' E 004°04'1821.1
2019-Sep-14 16:38N 41°49' E 003°42'321.0
2019-Sep-14 16:30N 41°48' E 003°39'1921.3
2019-Sep-14 15:37N 41°39' E 003°17'221.6
2019-Sep-14 15:30N 41°38' E 003°14'1121.4
2019-Sep-14 15:00N 41°33' E 003°01'1020.2
2019-Sep-14 14:30N 41°28' E 002°50'1020.4
2019-Sep-14 14:00N 41°22' E 002°38'1020.4
2019-Sep-14 13:30N 41°18' E 002°25'1019.6
2019-Sep-14 13:00N 41°14' E 002°14'611.3
2019-Sep-14 12:30N 41°19' E 002°10'2 3.5
2019-Sep-14 11:59N 41°21' E 002°10'0 0.0
2019-Sep-14 11:29N 41°21' E 002°10'0 0.0
2019-Sep-14 11:00N 41°21' E 002°10'0 0.0
2019-Sep-14 10:28N 41°21' E 002°10'0 0.0
2019-Sep-14 09:58N 41°21' E 002°10'0 0.0
2019-Sep-14 09:28N 41°21' E 002°10'0 0.0
2019-Sep-14 08:58N 41°21' E 002°10'0 0.0
2019-Sep-14 08:30N 41°21' E 002°10'0 0.0
2019-Sep-14 07:59N 41°21' E 002°10'0 0.0
2019-Sep-14 07:28N 41°21' E 002°10'0 0.0
2019-Sep-14 06:58N 41°21' E 002°10'0 0.0
2019-Sep-14 06:30N 41°21' E 002°10'0 0.0
2019-Sep-14 06:00N 41°21' E 002°10'0 0.0
2019-Sep-14 05:28N 41°21' E 002°10'0 0.0
2019-Sep-14 04:58N 41°21' E 002°10'0 0.0
2019-Sep-14 04:28N 41°21' E 002°10'0 0.0
2019-Sep-14 03:57N 41°21' E 002°10'0 0.0
2019-Sep-14 03:29N 41°21' E 002°10'0 0.0
2019-Sep-14 02:58N 41°21' E 002°10'0 0.0
2019-Sep-14 02:30N 41°21' E 002°10'0 0.0
2019-Sep-14 01:59N 41°21' E 002°10'0 0.0
2019-Sep-14 01:27N 41°21' E 002°10'0 0.0
2019-Sep-14 00:59N 41°21' E 002°10'0 0.0
2019-Sep-14 00:30N 41°21' E 002°10'0 0.0
2019-Sep-13 23:58N 41°21' E 002°10'0 0.0
2019-Sep-13 23:28N 41°21' E 002°10'0 0.0
2019-Sep-13 22:58N 41°21' E 002°10'0 0.0
2019-Sep-13 22:28N 41°21' E 002°10'0 0.0
2019-Sep-13 21:58N 41°21' E 002°10'0 0.0
2019-Sep-13 21:29N 41°21' E 002°10'0 0.0
2019-Sep-13 20:58N 41°21' E 002°10'0 0.0
2019-Sep-13 20:30N 41°21' E 002°10'0 0.0
2019-Sep-13 19:59N 41°21' E 002°10'0 0.0
2019-Sep-13 19:28N 41°21' E 002°10'0 0.0
2019-Sep-13 19:00N 41°21' E 002°10'0 0.0
2019-Sep-13 18:27N 41°21' E 002°10'0 0.0
2019-Sep-13 17:59N 41°21' E 002°10'0 0.0
2019-Sep-13 17:29N 41°21' E 002°10'0 0.0
2019-Sep-13 16:58N 41°21' E 002°10'0 0.0
2019-Sep-13 16:28N 41°21' E 002°10'0 0.0
2019-Sep-13 15:57N 41°21' E 002°10'0 0.0
2019-Sep-13 15:30N 41°21' E 002°10'0 0.0
2019-Sep-13 15:00N 41°21' E 002°10'0 0.0
2019-Sep-13 14:26N 41°21' E 002°10'0 0.0
2019-Sep-13 14:00N 41°21' E 002°10'0 0.0
2019-Sep-13 13:29N 41°21' E 002°10'0 0.0
2019-Sep-13 12:58N 41°21' E 002°10'0 0.0
2019-Sep-13 12:30N 41°21' E 002°10'0 0.0
2019-Sep-13 11:59N 41°21' E 002°10'0 0.0
2019-Sep-13 11:29N 41°21' E 002°10'0 0.0
2019-Sep-13 10:58N 41°21' E 002°10'0 0.0
2019-Sep-13 10:28N 41°21' E 002°10'0 0.0
2019-Sep-13 09:58N 41°21' E 002°10'0 0.0
2019-Sep-13 09:28N 41°21' E 002°10'0 0.0
2019-Sep-13 08:58N 41°21' E 002°10'0 0.0
2019-Sep-13 08:28N 41°21' E 002°10'0 0.0
2019-Sep-13 07:58N 41°21' E 002°10'0 0.0
2019-Sep-13 07:28N 41°21' E 002°10'0 0.0
2019-Sep-13 07:00N 41°21' E 002°10'1 1.1
2019-Sep-13 06:30N 41°21' E 002°10'2 4.1
2019-Sep-13 06:00N 41°19' E 002°10'611.6
2019-Sep-13 05:31N 41°13' E 002°11'917.7
2019-Sep-13 05:01N 41°04' E 002°11'917.6
2019-Sep-13 04:30N 40°55' E 002°12'1417.8
2019-Sep-13 03:44N 40°41' E 002°13'1018.4
2019-Sep-13 03:12N 40°32' E 002°13'3420.4
2019-Sep-13 01:30N 39°57' E 002°15'3019.4
2019-Sep-12 23:59N 39°28' E 002°21'1020.2
2019-Sep-12 23:30N 39°25' E 002°33'916.7
2019-Sep-12 23:00N 39°33' E 002°39'1 1.5
2019-Sep-12 22:30N 39°33' E 002°38'0 0.0
2019-Sep-12 21:59N 39°33' E 002°38'0 0.0
2019-Sep-12 21:25N 39°33' E 002°38'0 0.0
2019-Sep-12 20:52N 39°33' E 002°38'0 0.0
2019-Sep-12 20:28N 39°33' E 002°38'0 0.0
2019-Sep-12 19:58N 39°33' E 002°38'0 0.0
2019-Sep-12 19:28N 39°33' E 002°38'0 0.0
2019-Sep-12 19:00N 39°33' E 002°38'0 0.0
2019-Sep-12 18:30N 39°33' E 002°38'0 0.0
2019-Sep-12 18:00N 39°33' E 002°38'0 0.0
2019-Sep-12 17:29N 39°33' E 002°38'0 0.0
2019-Sep-12 16:58N 39°33' E 002°38'0 0.0
2019-Sep-12 16:28N 39°33' E 002°38'0 0.0
2019-Sep-12 15:55N 39°33' E 002°38'0 0.0
2019-Sep-12 15:28N 39°33' E 002°38'0 0.0
2019-Sep-12 15:00N 39°33' E 002°38'0 0.0
2019-Sep-12 14:28N 39°33' E 002°38'0 0.0
2019-Sep-12 14:00N 39°33' E 002°38'0 0.0
2019-Sep-12 13:30N 39°33' E 002°38'0 0.0
2019-Sep-12 13:00N 39°33' E 002°38'0 0.0
2019-Sep-12 12:29N 39°33' E 002°38'0 0.0
2019-Sep-12 12:00N 39°33' E 002°38'0 0.2
2019-Sep-12 11:40N 39°33' E 002°38'0 0.3
2019-Sep-12 11:30N 39°33' E 002°38'0 0.0
2019-Sep-12 11:00N 39°33' E 002°38'0 0.0
2019-Sep-12 10:30N 39°33' E 002°38'0 0.0
2019-Sep-12 10:00N 39°33' E 002°38'0 0.0
2019-Sep-12 09:30N 39°33' E 002°38'0 0.0
2019-Sep-12 09:00N 39°33' E 002°38'0 0.0
2019-Sep-12 08:30N 39°33' E 002°38'0 0.0
2019-Sep-12 08:00N 39°33' E 002°38'0 0.0
2019-Sep-12 07:30N 39°33' E 002°38'0 0.0
2019-Sep-12 06:57N 39°33' E 002°38'0 0.0
2019-Sep-12 06:30N 39°33' E 002°38'0 0.0
2019-Sep-12 06:00N 39°33' E 002°38'1 1.7
2019-Sep-12 05:30N 39°33' E 002°39'4 7.6
2019-Sep-12 05:00N 39°29' E 002°37'713.8
2019-Sep-12 04:30N 39°23' E 002°33'611.1
2019-Sep-12 04:00N 39°18' E 002°30'610.9
2019-Sep-12 03:30N 39°13' E 002°29'611.7
2019-Sep-12 03:00N 39°07' E 002°30'812.2
2019-Sep-12 02:18N 38°60' E 002°36'411.7
2019-Sep-12 02:00N 38°57' E 002°39'46315.3
2019-Sep-10 19:48N 38°19' E 012°30'518.4
2019-Sep-10 19:30N 38°19' E 012°37'918.5
2019-Sep-10 19:00N 38°19' E 012°49'918.3
2019-Sep-10 18:30N 38°18' E 013°00'918.6
2019-Sep-10 18:01N 38°18' E 013°12'918.3
2019-Sep-10 17:30N 38°16' E 013°23'815.4
2019-Sep-10 17:00N 38°08' E 013°25'2 4.3
2019-Sep-10 16:30N 38°08' E 013°22'0 0.0
2019-Sep-10 15:59N 38°08' E 013°22'0 0.0
2019-Sep-10 15:29N 38°08' E 013°22'0 0.0
2019-Sep-10 14:58N 38°08' E 013°22'0 0.0
2019-Sep-10 14:30N 38°08' E 013°22'0 0.0
2019-Sep-10 14:00N 38°08' E 013°22'0 0.0
2019-Sep-10 13:30N 38°08' E 013°22'0 0.0
2019-Sep-10 13:00N 38°08' E 013°22'0 0.0
2019-Sep-10 12:30N 38°08' E 013°22'0 0.0
2019-Sep-10 11:59N 38°08' E 013°22'0 0.0
2019-Sep-10 11:29N 38°08' E 013°22'0 0.0
2019-Sep-10 10:59N 38°08' E 013°22'0 0.0
2019-Sep-10 10:29N 38°08' E 013°22'0 0.0
2019-Sep-10 09:59N 38°08' E 013°22'0 0.0
2019-Sep-10 09:29N 38°08' E 013°22'0 0.0
2019-Sep-10 08:59N 38°08' E 013°22'0 0.0
2019-Sep-10 08:29N 38°08' E 013°22'0 0.0
2019-Sep-10 07:59N 38°08' E 013°22'0 0.0
2019-Sep-10 07:29N 38°08' E 013°22'0 0.0
2019-Sep-10 07:01N 38°08' E 013°22'0 0.2
2019-Sep-10 06:31N 38°08' E 013°22'1 2.2
2019-Sep-10 06:01N 38°08' E 013°24'713.3
2019-Sep-10 05:31N 38°14' E 013°27'917.4
2019-Sep-10 05:01N 38°22' E 013°29'917.5
2019-Sep-10 04:31N 38°31' E 013°32'917.6
2019-Sep-10 04:00N 38°40' E 013°34'917.7
2019-Sep-10 03:30N 38°48' E 013°37'7514.5
2019-Sep-09 22:20N 40°01' E 013°59'512.5
2019-Sep-09 21:59N 40°06' E 014°00'612.4
2019-Sep-09 21:30N 40°11' E 014°02'612.4
2019-Sep-09 21:00N 40°17' E 014°04'612.2
2019-Sep-09 20:30N 40°23' E 014°05'812.1
2019-Sep-09 19:51N 40°31' E 014°08'412.2
2019-Sep-09 19:30N 40°35' E 014°09'612.2
2019-Sep-09 19:00N 40°41' E 014°13'612.2
2019-Sep-09 18:30N 40°46' E 014°15'4 7.8
2019-Sep-09 18:00N 40°50' E 014°16'0 0.1
2019-Sep-09 17:28N 40°50' E 014°16'0 0.0
2019-Sep-09 16:58N 40°50' E 014°16'0 0.0
2019-Sep-09 16:28N 40°50' E 014°16'0 0.0
2019-Sep-09 15:58N 40°50' E 014°16'0 0.0
2019-Sep-09 15:27N 40°50' E 014°16'0 0.0
2019-Sep-09 14:57N 40°50' E 014°16'0 0.0
2019-Sep-09 14:30N 40°50' E 014°16'0 0.0
2019-Sep-09 14:00N 40°50' E 014°16'0 0.0
2019-Sep-09 13:30N 40°50' E 014°16'0 0.0
2019-Sep-09 13:00N 40°50' E 014°16'0 0.0
2019-Sep-09 12:27N 40°50' E 014°16'0 0.0
2019-Sep-09 12:00N 40°50' E 014°16'0 0.0
2019-Sep-09 11:30N 40°50' E 014°16'0 0.0
2019-Sep-09 10:58N 40°50' E 014°16'0 0.4
2019-Sep-09 10:31N 40°50' E 014°16'4 8.0
2019-Sep-09 10:00N 40°46' E 014°17'917.8
2019-Sep-09 09:30N 40°39' E 014°10'918.1
2019-Sep-09 09:00N 40°38' E 013°58'1019.1
2019-Sep-09 08:30N 40°41' E 013°46'1019.6
2019-Sep-09 08:00N 40°47' E 013°36'16619.9
2019-Sep-08 23:40N 42°23' E 010°34'1120.4
2019-Sep-08 23:09N 42°29' E 010°23'820.4
2019-Sep-08 22:45N 42°35' E 010°15'620.5
2019-Sep-08 22:28N 42°38' E 010°09'1520.4
2019-Sep-08 21:43N 42°46' E 009°51'1320.1
2019-Sep-08 21:03N 42°56' E 009°38'120.5
2019-Sep-08 21:00N 42°57' E 009°37'1120.1
2019-Sep-08 20:28N 43°06' E 009°32'919.5
2019-Sep-08 20:01N 43°14' E 009°25'1019.8
2019-Sep-08 19:31N 43°23' E 009°18'1020.3
2019-Sep-08 19:01N 43°31' E 009°11'1020.1
2019-Sep-08 18:30N 43°40' E 009°04'1019.9
2019-Sep-08 18:00N 43°48' E 008°57'1019.7
2019-Sep-08 17:30N 43°57' E 008°50'1019.7
2019-Sep-08 17:01N 44°05' E 008°43'1020.0
2019-Sep-08 16:31N 44°14' E 008°36'612.7
2019-Sep-08 16:00N 44°19' E 008°31'1 1.8
2019-Sep-08 15:28N 44°19' E 008°29'0 0.0
2019-Sep-08 14:58N 44°19' E 008°29'0 0.0
2019-Sep-08 14:28N 44°19' E 008°29'0 0.0
2019-Sep-08 13:58N 44°19' E 008°29'0 0.0
2019-Sep-08 13:28N 44°19' E 008°29'0 0.0
2019-Sep-08 12:58N 44°19' E 008°29'0 0.0
2019-Sep-08 12:28N 44°19' E 008°29'0 0.0
2019-Sep-08 11:58N 44°19' E 008°29'0 0.0
2019-Sep-08 11:28N 44°19' E 008°29'0 0.0
2019-Sep-08 10:58N 44°19' E 008°29'0 0.0
2019-Sep-08 10:28N 44°19' E 008°29'0 0.0
2019-Sep-08 10:00N 44°19' E 008°29'0 0.0
2019-Sep-08 09:30N 44°19' E 008°29'0 0.0
2019-Sep-08 09:00N 44°19' E 008°29'0 0.0
2019-Sep-08 08:30N 44°19' E 008°29'0 0.0
2019-Sep-08 07:59N 44°19' E 008°29'0 0.0
2019-Sep-08 07:30N 44°19' E 008°29'0 0.0
2019-Sep-08 06:58N 44°19' E 008°29'0 0.0
2019-Sep-08 06:30N 44°19' E 008°29'0 0.4
2019-Sep-08 06:01N 44°19' E 008°29'2 4.3
2019-Sep-08 05:31N 44°17' E 008°32'612.1
2019-Sep-08 05:00N 44°11' E 008°29'918.7
2019-Sep-08 04:30N 44°04' E 008°22'1020.2
2019-Sep-08 04:01N 43°55' E 008°14'1121.0
2019-Sep-08 03:31N 43°48' E 008°05'1121.1
2019-Sep-08 03:00N 43°40' E 007°54'1121.3
2019-Sep-08 02:31N 43°33' E 007°43'1121.4
2019-Sep-08 02:01N 43°27' E 007°31'1121.4
2019-Sep-08 01:31N 43°21' E 007°19'1121.4
2019-Sep-08 01:01N 43°14' E 007°08'1121.1
2019-Sep-08 00:30N 43°08' E 006°56'1121.1
2019-Sep-07 23:59N 43°01' E 006°44'1020.9
2019-Sep-07 23:30N 42°55' E 006°33'19120.4
2019-Sep-07 14:10N 41°26' E 002°45'422.5
2019-Sep-07 14:01N 41°25' E 002°41'1122.2
2019-Sep-07 13:30N 41°19' E 002°28'1121.1
2019-Sep-07 13:00N 41°13' E 002°16'815.6
2019-Sep-07 12:30N 41°20' E 002°10'1 2.9
2019-Sep-07 11:59N 41°21' E 002°10'0 0.0
2019-Sep-07 11:29N 41°21' E 002°10'0 0.0
2019-Sep-07 10:59N 41°21' E 002°10'0 0.0
2019-Sep-07 10:30N 41°21' E 002°10'0 0.0
2019-Sep-07 09:58N 41°21' E 002°10'0 0.0
2019-Sep-07 09:29N 41°21' E 002°10'0 0.0
2019-Sep-07 09:00N 41°21' E 002°10'  

Dump ship's entire track history